Time;durP1;ratioP1;P1;durP2;ratioP2;P2;SDS_P1;SDS_P2;PMS_P1;PMS_P2;Temp;Humidity;BMP_temperature;BMP_pressure;BME280_temperature;BME280_humidity;BME280_pressure;Samples;Min_cycle;Max_cycle;Signal;HPM_P1;HPM_P2
2022/08/08 00:00:45;;;;;;;11.43;10.77;;;;;;;17.96;100.00;102495.70;1904807;75;24189;-74
2022/08/08 00:03:20;;;;;;;11.67;10.93;;;;;;;17.79;100.00;102499.50;1879814;76;24199;-74
2022/08/08 00:05:55;;;;;;;11.57;10.90;;;;;;;17.85;100.00;102505.34;1901290;75;24289;-74
2022/08/08 00:11:44;;;;;;;11.50;10.90;;;;;;;18.16;100.00;102501.13;2016942;71;30935;-75
2022/08/08 00:17:41;;;;;;;11.00;10.40;;;;;;;17.97;100.00;102505.78;2009484;71;30903;-72
2022/08/08 00:23:30;;;;;;;10.77;10.30;;;;;;;17.89;100.00;102507.83;2016835;71;33362;-75
2022/08/08 00:29:19;;;;;;;12.10;11.40;;;;;;;18.14;100.00;102509.00;2016716;71;30919;-74
2022/08/08 00:35:40;;;;;;;12.00;11.30;;;;;;;17.94;100.00;102506.95;1995519;70;32820;-76
2022/08/08 00:38:20;;;;;;;12.10;11.50;;;;;;;17.84;100.00;102508.47;1978122;72;26652;-73
2022/08/08 00:41:20;;;;;;;11.50;11.00;;;;;;;17.61;100.00;102515.09;1983603;72;26657;-74
2022/08/08 00:48:15;;;;;;;11.37;10.60;;;;;;;17.73;100.00;102511.34;2016824;71;32868;-73
2022/08/08 00:51:47;;;;;;;11.50;10.90;;;;;;;17.82;100.00;102512.96;1981241;72;26689;-75
2022/08/08 00:55:12;;;;;;;11.63;11.10;;;;;;;17.91;100.00;102508.39;1833654;77;24722;-75
2022/08/08 00:58:19;;;;;;;11.83;11.13;;;;;;;18.01;100.00;102510.28;1826255;77;24189;-73
2022/08/08 01:04:11;;;;;;;10.97;10.43;;;;;;;17.67;100.00;102502.66;1995627;71;33446;-73
2022/08/08 01:06:49;;;;;;;10.93;10.30;;;;;;;17.83;100.00;102511.00;1962590;72;24214;-74
2022/08/08 01:12:46;;;;;;;10.73;10.30;;;;;;;18.15;100.00;102518.28;1995461;71;32831;-74
2022/08/08 01:15:20;;;;;;;11.10;10.50;;;;;;;18.06;100.00;102519.48;1981997;72;24240;-74
2022/08/08 01:17:53;;;;;;;12.27;11.67;;;;;;;17.99;100.00;102524.63;1977532;72;24628;-74
2022/08/08 01:23:54;;;;;;;13.07;12.27;;;;;;;17.82;100.00;102521.96;2006112;71;30958;-75
2022/08/08 01:26:32;;;;;;;12.37;11.77;;;;;;;17.88;100.00;102527.27;1978463;72;26662;-74
2022/08/08 01:32:29;;;;;;;13.37;12.77;;;;;;;17.54;100.00;102510.91;2000849;71;30880;-75
2022/08/08 01:38:19;;;;;;;13.50;12.80;;;;;;;17.18;100.00;102515.34;2018650;71;32914;-74
2022/08/08 01:44:13;;;;;;;16.80;16.00;;;;;;;17.38;100.00;102514.93;2016907;71;31370;-73
2022/08/08 01:53:11;;;;;;;16.20;15.40;;;;;;;17.11;100.00;102516.23;2061184;69;33224;-76
2022/08/08 01:59:08;;;;;;;17.37;16.47;;;;;;;17.38;100.00;102517.73;2015194;71;32835;-75
2022/08/08 02:08:08;;;;;;;17.33;16.53;;;;;;;16.95;100.00;102519.38;2061086;69;32635;-73
2022/08/08 02:17:11;;;;;;;22.07;20.97;;;;;;;17.09;100.00;102508.65;2056611;69;32650;-74
2022/08/08 02:23:03;;;;;;;24.13;22.80;;;;;;;16.49;100.00;102512.50;1997267;71;33335;-73
2022/08/08 02:28:56;;;;;;;29.53;28.03;;;;;;;16.34;100.00;102508.34;2009654;71;32850;-75
2022/08/08 02:31:33;;;;;;;34.73;32.93;;;;;;;16.12;100.00;102517.63;1984793;72;26779;-75
2022/08/08 02:37:19;;;;;;;33.07;31.37;;;;;;;15.99;100.00;102507.83;1995238;71;32869;-73
2022/08/08 02:43:12;;;;;;;34.43;32.27;;;;;;;16.47;100.00;102504.95;1991588;71;32953;-74
2022/08/08 02:49:11;;;;;;;32.97;31.23;;;;;;;16.20;100.00;102510.05;2015053;71;32871;-73
2022/08/08 02:55:18;;;;;;;37.37;35.17;;;;;;;16.19;100.00;102511.16;2009679;71;32857;-76
2022/08/08 02:57:52;;;;;;;39.17;37.07;;;;;;;16.05;100.00;102519.86;1982823;72;26207;-76
2022/08/08 03:03:55;;;;;;;41.97;39.67;;;;;;;16.23;100.00;102517.87;2009553;71;34800;-75
2022/08/08 03:09:58;;;;;;;42.90;40.63;;;;;;;16.43;100.00;102516.43;2008269;71;32822;-73
2022/08/08 03:19:15;;;;;;;47.77;45.23;;;;;;;16.23;100.00;102520.12;2016754;71;32947;-74
2022/08/08 03:21:43;;;;;;;49.30;46.70;;;;;;;16.23;100.00;102519.28;1975029;72;26201;-74
2022/08/08 03:27:36;;;;;;;53.90;50.90;;;;;;;16.15;100.00;102529.12;1998583;71;32824;-73
2022/08/08 03:33:23;;;;;;;57.97;54.97;;;;;;;15.68;100.00;102535.00;2004324;71;32817;-73
2022/08/08 03:39:06;;;;;;;59.37;56.03;;;;;;;15.46;100.00;102536.61;2014981;71;32803;-76
2022/08/08 03:44:51;;;;;;;59.70;56.10;;;;;;;15.64;100.00;102534.44;2014700;71;32858;-73
2022/08/08 03:50:39;;;;;;;60.50;56.80;;;;;;;15.66;100.00;102532.20;1991776;70;32844;-72
2022/08/08 03:56:24;;;;;;;60.77;57.07;;;;;;;15.70;100.00;102534.14;2013583;71;32745;-75
2022/08/08 04:05:32;;;;;;;61.53;57.73;;;;;;;15.72;100.00;102550.69;2002927;71;33280;-75
2022/08/08 04:11:18;;;;;;;60.80;57.10;;;;;;;15.63;100.00;102552.35;2016781;71;32875;-74
2022/08/08 04:17:04;;;;;;;61.03;57.17;;;;;;;15.58;100.00;102563.55;2014872;71;32797;-73
2022/08/08 04:22:48;;;;;;;62.33;58.33;;;;;;;15.45;100.00;102567.69;1994982;71;32786;-73
2022/08/08 04:28:33;;;;;;;62.87;58.83;;;;;;;15.49;100.00;102577.22;2014920;71;32891;-74
2022/08/08 04:34:16;;;;;;;62.50;58.50;;;;;;;15.96;100.00;102564.42;2018531;71;32847;-75
2022/08/08 04:40:00;;;;;;;62.47;58.47;;;;;;;15.76;100.00;102571.42;2011681;71;32737;-73
2022/08/08 04:45:45;;;;;;;62.10;58.27;;;;;;;15.71;100.00;102572.26;2000775;71;33397;-75
2022/08/08 04:51:28;;;;;;;62.93;58.93;;;;;;;15.69;100.00;102578.72;2004746;71;32812;-73
2022/08/08 04:57:15;;;;;;;62.77;58.87;;;;;;;15.99;100.00;102568.09;2015112;71;33444;-75
2022/08/08 05:02:59;;;;;;;61.70;58.00;;;;;;;15.83;100.00;102586.03;1991244;71;32773;-75
2022/08/08 05:08:45;;;;;;;62.47;58.57;;;;;;;16.15;100.00;102592.76;2014890;71;32859;-75
2022/08/08 05:14:30;;;;;;;63.47;59.57;;;;;;;16.22;100.00;102601.72;2002543;71;32857;-74
2022/08/08 05:20:15;;;;;;;63.67;59.50;;;;;;;15.93;100.00;102606.48;2000920;71;33227;-73
2022/08/08 05:26:00;;;;;;;65.00;60.67;;;;;;;15.88;100.00;102606.47;2015423;71;33265;-74
2022/08/08 05:31:45;;;;;;;62.93;58.50;;;;;;;15.91;100.00;102617.70;2006341;71;33261;-76
2022/08/08 05:37:34;;;;;;;64.27;59.57;;;;;;;16.14;100.00;102626.11;2006320;71;32745;-76
2022/08/08 05:43:22;;;;;;;64.37;60.00;;;;;;;16.26;100.00;102622.47;2018667;71;32867;-74
2022/08/08 05:52:17;;;;;;;64.73;60.00;;;;;;;16.23;100.00;102622.48;2033788;69;33119;-74
2022/08/08 06:01:13;;;;;;;66.70;62.63;;;;;;;16.45;100.00;102622.20;2061317;69;32780;-76
2022/08/08 06:07:02;;;;;;;64.07;59.77;;;;;;;16.79;100.00;102646.31;1998978;71;32741;-73
2022/08/08 06:12:46;;;;;;;67.47;62.87;;;;;;;17.01;100.00;102638.41;2015261;71;33381;-75
2022/08/08 06:18:30;;;;;;;65.13;60.27;;;;;;;16.92;100.00;102635.05;2006238;71;32740;-74
2022/08/08 06:24:13;;;;;;;63.83;60.13;;;;;;;17.09;100.00;102634.16;2011585;71;33418;-74
2022/08/08 06:29:59;;;;;;;62.17;58.47;;;;;;;17.27;100.00;102640.56;2015018;71;32798;-74
2022/08/08 06:35:48;;;;;;;64.10;60.20;;;;;;;17.54;100.00;102648.61;1991838;71;33262;-74
2022/08/08 06:41:36;;;;;;;62.13;58.03;;;;;;;17.52;100.00;102662.94;1999153;71;33248;-73
2022/08/08 06:50:26;;;;;;;60.60;56.90;;;;;;;17.77;100.00;102658.33;2061109;69;33175;-74
2022/08/08 06:56:14;;;;;;;59.43;55.57;;;;;;;17.84;100.00;102663.09;2000743;71;32826;-75
2022/08/08 07:02:01;;;;;;;60.43;56.73;;;;;;;17.97;100.00;102661.05;1995395;71;30772;-75
2022/08/08 07:07:52;;;;;;;58.70;54.73;;;;;;;18.25;100.00;102667.30;1995280;71;32835;-73
2022/08/08 07:16:47;;;;;;;57.87;54.27;;;;;;;18.42;100.00;102662.09;2061215;69;32612;-75
2022/08/08 07:25:44;;;;;;;59.10;55.70;;;;;;;18.62;100.00;102663.91;2041007;69;32630;-73
2022/08/08 07:28:18;;;;;;;60.47;56.77;;;;;;;18.65;100.00;102678.83;2014185;71;24100;-74
2022/08/08 07:30:49;;;;;;;60.30;56.60;;;;;;;18.75;100.00;102678.71;2012873;70;24268;-73
2022/08/08 07:33:21;;;;;;;57.10;53.60;;;;;;;18.82;100.00;102682.61;1943632;73;24156;-74
2022/08/08 07:39:08;;;;;;;51.80;48.67;;;;;;;19.19;100.00;102687.56;2013359;71;30865;-74
2022/08/08 07:44:53;;;;;;;54.83;51.80;;;;;;;19.29;100.00;102691.12;2002932;71;33272;-74
2022/08/08 07:50:38;;;;;;;50.70;47.40;;;;;;;19.79;100.00;102691.06;2018405;71;30880;-74
2022/08/08 07:56:22;;;;;;;49.83;47.00;;;;;;;20.26;100.00;102683.03;2011990;71;30955;-74
2022/08/08 08:02:08;;;;;;;45.07;42.27;;;;;;;20.64;100.00;102691.47;2013197;71;30874;-74
2022/08/08 08:11:00;;;;;;;42.03;39.53;;;;;;;21.03;100.00;102686.81;2037607;69;30654;-74
2022/08/08 08:16:47;;;;;;;38.17;35.83;;;;;;;21.51;100.00;102690.13;2018420;71;30885;-75
2022/08/08 08:22:32;;;;;;;36.93;34.83;;;;;;;21.90;100.00;102683.33;2009735;71;30866;-74
2022/08/08 08:28:18;;;;;;;35.73;33.83;;;;;;;22.06;100.00;102683.84;2016405;71;30987;-74
2022/08/08 08:34:02;;;;;;;34.40;32.50;;;;;;;22.09;100.00;102686.86;2013097;71;30866;-73
2022/08/08 08:39:46;;;;;;;32.60;30.67;;;;;;;22.26;100.00;102683.34;2011065;71;30895;-73
2022/08/08 08:45:34;;;;;;;29.20;27.50;;;;;;;22.38;100.00;102684.22;2007967;71;30893;-74
2022/08/08 08:51:21;;;;;;;29.90;28.13;;;;;;;22.31;100.00;102682.38;2009731;71;30864;-73
2022/08/08 08:57:06;;;;;;;29.83;27.83;;;;;;;22.48;100.00;102682.52;2009942;71;30952;-74
2022/08/08 09:02:52;;;;;;;26.80;25.10;;;;;;;22.80;100.00;102680.88;2000187;71;30954;-73
2022/08/08 09:08:39;;;;;;;24.10;22.57;;;;;;;22.74;100.00;102682.16;2006052;71;31005;-74
2022/08/08 09:14:27;;;;;;;23.53;22.23;;;;;;;23.11;100.00;102680.86;2018436;71;30991;-73
2022/08/08 09:20:12;;;;;;;23.50;22.10;;;;;;;23.11;100.00;102667.53;2009641;71;31398;-73
2022/08/08 09:26:01;;;;;;;23.17;21.97;;;;;;;22.67;100.00;102679.77;2014955;71;31382;-73
2022/08/08 09:35:00;;;;;;;20.77;19.55;;;;;;;23.17;100.00;102660.30;2060967;69;30577;-74
2022/08/08 09:40:49;;;;;;;19.30;18.30;;;;;;;22.86;100.00;102658.89;2003833;71;30962;-74
2022/08/08 09:46:37;;;;;;;18.95;17.57;;;;;;;22.86;100.00;102660.30;2018787;71;31037;-72
2022/08/08 09:52:26;;;;;;;17.70;16.60;;;;;;;22.91;100.00;102655.34;2005930;71;30933;-73
2022/08/08 10:01:24;;;;;;;16.60;15.70;;;;;;;23.04;100.00;102657.25;2046093;69;30588;-72
2022/08/08 10:03:57;;;;;;;15.23;14.50;;;;;;;23.00;100.00;102659.64;2013399;70;24181;-72
2022/08/08 10:09:45;;;;;;;15.40;14.50;;;;;;;23.17;100.00;102650.37;2003818;70;31448;-73
2022/08/08 10:15:30;;;;;;;13.45;12.70;;;;;;;23.29;100.00;102648.59;2001624;71;31121;-73
2022/08/08 10:21:16;;;;;;;13.55;12.78;;;;;;;23.64;100.00;102641.62;2006225;71;30817;-75
2022/08/08 10:27:02;;;;;;;12.93;12.15;;;;;;;23.37;100.00;102652.61;2016919;71;31453;-72
2022/08/08 10:32:54;;;;;;;12.50;11.80;;;;;;;23.98;100.00;102637.42;2016880;71;30957;-72
2022/08/08 10:38:42;;;;;;;12.05;11.30;;;;;;;23.50;100.00;102642.59;2009821;71;31407;-73
2022/08/08 10:44:30;;;;;;;11.25;10.65;;;;;;;23.73;100.00;102639.65;2011271;71;30870;-73
2022/08/08 10:50:28;;;;;;;11.95;11.35;;;;;;;23.83;100.00;102636.50;2014859;71;31407;-72
2022/08/08 10:56:18;;;;;;;11.48;10.72;;;;;;;23.53;100.00;102629.16;1991583;71;31313;-73
2022/08/08 11:02:02;;;;;;;11.33;10.82;;;;;;;23.40;100.00;102628.71;2006258;71;30818;-72
2022/08/08 11:11:04;;;;;;;11.68;10.90;;;;;;;23.50;100.00;102630.41;2045738;69;30553;-74
2022/08/08 11:13:40;;;;;;;11.18;10.55;;;;;;;23.46;100.00;102636.49;1934744;73;24149;-74
2022/08/08 11:19:32;;;;;;;11.30;10.68;;;;;;;23.49;100.00;102621.67;2004329;71;30815;-72
2022/08/08 11:25:19;;;;;;;10.95;10.38;;;;;;;23.50;100.00;102621.91;1995240;71;30893;-72
2022/08/08 11:31:06;;;;;;;11.10;10.50;;;;;;;23.61;100.00;102621.02;2011289;71;30869;-74
2022/08/08 11:36:50;;;;;;;11.40;10.80;;;;;;;23.87;100.00;102609.13;1998654;71;31035;-72
2022/08/08 11:42:34;;;;;;;12.93;12.35;;;;;;;23.88;100.00;102605.09;2004036;71;31413;-73
2022/08/08 11:51:45;;;;;;;11.28;10.48;;;;;;;23.81;100.00;102599.09;2061289;69;30542;-73
2022/08/08 11:54:15;;;;;;;10.53;10.03;;;;;;;23.74;100.00;102600.17;1941447;73;24241;-72
2022/08/08 11:56:46;;;;;;;10.80;10.30;;;;;;;23.77;100.00;102600.34;2017936;70;24248;-72
2022/08/08 11:59:17;;;;;;;11.33;10.82;;;;;;;23.77;100.00;102593.83;2016862;70;24182;-72
2022/08/08 12:01:47;;;;;;;10.90;10.40;;;;;;;23.82;100.00;102601.60;2016752;71;24561;-72
2022/08/08 12:04:18;;;;;;;10.78;10.20;;;;;;;23.83;100.00;102593.92;2012948;70;24686;-72
2022/08/08 12:06:49;;;;;;;11.45;10.75;;;;;;;23.81;100.00;102591.99;2015148;70;24243;-71
2022/08/08 12:09:22;;;;;;;10.40;10.00;;;;;;;23.83;100.00;102589.67;2019304;70;24156;-72
2022/08/08 12:11:53;;;;;;;10.75;10.25;;;;;;;23.85;100.00;102585.31;2016012;71;24138;-73
2022/08/08 12:14:25;;;;;;;10.70;10.10;;;;;;;23.88;100.00;102580.38;2016763;71;24153;-73
2022/08/08 12:16:57;;;;;;;10.58;10.08;;;;;;;24.01;100.00;102582.80;2022290;70;24673;-73
2022/08/08 12:19:27;;;;;;;11.00;10.50;;;;;;;24.70;100.00;102577.02;2016568;70;24173;-73
2022/08/08 12:22:10;;;;;;;11.22;10.53;;;;;;;24.54;100.00;102580.17;2019450;70;24141;-73
2022/08/08 12:24:48;;;;;;;10.70;10.20;;;;;;;24.72;100.00;102567.00;2012903;70;24139;-73
2022/08/08 12:27:21;;;;;;;10.68;10.18;;;;;;;24.48;100.00;102570.98;2016894;71;24130;-73
2022/08/08 12:29:58;;;;;;;10.50;9.90;;;;;;;24.80;100.00;102564.70;2013046;71;24547;-73
2022/08/08 12:32:29;;;;;;;10.58;10.00;;;;;;;24.23;100.00;102570.45;1971096;72;24111;-72
2022/08/08 12:35:05;;;;;;;10.98;10.48;;;;;;;24.54;100.00;102572.48;2009215;70;24166;-73
2022/08/08 12:37:35;;;;;;;10.65;10.15;;;;;;;24.29;100.00;102571.96;2024838;70;24126;-73
2022/08/08 12:43:34;;;;;;;10.82;10.23;;;;;;;24.14;100.00;102567.59;2009630;71;30825;-73
2022/08/08 12:49:32;;;;;;;10.98;10.58;;;;;;;24.50;100.00;102550.19;2011999;71;31351;-75
2022/08/08 12:55:18;;;;;;;10.48;9.83;;;;;;;24.56;100.00;102550.23;2000701;71;30804;-75
2022/08/08 13:01:21;;;;;;;10.23;9.80;;;;;;;24.95;100.00;102550.52;1991970;71;30809;-74
2022/08/08 13:07:09;;;;;;;10.08;9.53;;;;;;;24.43;100.00;102569.16;1995483;71;30876;-74
2022/08/08 13:12:58;;;;;;;10.63;10.23;;;;;;;24.47;100.00;102550.87;2005814;71;30936;-74
2022/08/08 13:18:46;;;;;;;10.88;10.38;;;;;;;24.77;100.00;102545.47;1998644;71;30901;-75
2022/08/08 13:24:37;;;;;;;10.80;10.30;;;;;;;25.41;100.00;102537.39;2004200;71;31447;-75
2022/08/08 13:30:26;;;;;;;10.90;10.28;;;;;;;24.89;100.00;102541.38;2004744;71;31312;-74
2022/08/08 13:36:12;;;;;;;10.55;10.05;;;;;;;24.67;100.00;102536.50;2017052;71;30989;-75
2022/08/08 13:41:59;;;;;;;10.53;10.13;;;;;;;25.57;100.00;102535.03;2013530;71;30860;-74
2022/08/08 13:47:46;;;;;;;10.93;10.43;;;;;;;25.50;100.00;102533.28;2004444;71;30810;-75
2022/08/08 13:53:37;;;;;;;10.35;9.85;;;;;;;25.45;100.00;102540.62;2009879;71;30909;-74
2022/08/08 13:59:32;;;;;;;10.00;9.60;;;;;;;25.37;100.00;102535.83;2013698;71;31397;-74
2022/08/08 14:05:18;;;;;;;10.38;9.85;;;;;;;25.02;100.00;102539.47;2006331;71;30803;-74
2022/08/08 14:11:04;;;;;;;10.23;9.83;;;;;;;24.90;100.00;102535.10;2009714;71;31373;-74
2022/08/08 14:16:51;;;;;;;10.65;10.18;;;;;;;24.69;100.00;102527.06;2000264;71;30872;-74
2022/08/08 14:22:46;;;;;;;15.38;14.78;;;;;;;25.48;100.00;102517.73;2016742;71;30882;-74
2022/08/08 14:28:31;;;;;;;15.72;15.10;;;;;;;25.92;100.00;102516.23;2009443;71;30940;-75
2022/08/08 14:34:23;;;;;;;10.60;10.20;;;;;;;26.03;100.00;102514.59;2009500;71;31940;-73
2022/08/08 14:40:11;;;;;;;10.60;10.20;;;;;;;25.54;100.00;102502.17;2009355;71;30872;-73
2022/08/08 14:46:06;;;;;;;10.40;9.90;;;;;;;25.86;100.00;102500.53;2014719;71;31073;-73
2022/08/08 14:52:07;;;;;;;9.80;9.40;;;;;;;25.90;100.00;102499.48;2016840;71;31854;-73
2022/08/08 14:58:01;;;;;;;10.10;9.70;;;;;;;26.04;100.00;102494.32;2016943;71;31374;-75
2022/08/08 15:03:49;;;;;;;10.90;10.38;;;;;;;25.89;100.00;102503.50;2007524;71;30878;-75
2022/08/08 15:09:38;;;;;;;10.90;10.40;;;;;;;25.74;100.00;102492.19;2016864;71;31955;-74
2022/08/08 15:15:26;;;;;;;10.55;10.05;;;;;;;25.58;100.00;102494.59;1991494;71;32987;-74
2022/08/08 15:21:16;;;;;;;10.70;10.10;;;;;;;25.80;100.00;102484.27;1995227;71;30920;-74
2022/08/08 15:27:04;;;;;;;10.50;10.10;;;;;;;26.07;100.00;102491.35;2006319;71;31787;-74
2022/08/08 15:32:51;;;;;;;11.25;10.65;;;;;;;25.86;100.00;102487.72;2006303;71;30821;-75
2022/08/08 15:38:39;;;;;;;11.38;10.80;;;;;;;26.53;100.00;102482.45;2008197;71;30870;-75
2022/08/08 15:44:27;;;;;;;10.98;10.40;;;;;;;26.33;100.00;102479.70;2004948;71;31786;-75
2022/08/08 15:50:15;;;;;;;10.48;10.03;;;;;;;25.56;100.00;102476.44;2008096;71;31364;-74
2022/08/08 15:56:02;;;;;;;10.48;9.98;;;;;;;25.94;100.00;102488.22;2016651;71;30955;-74
2022/08/08 16:01:51;;;;;;;10.60;10.20;;;;;;;25.58;100.00;102476.94;2015272;71;31851;-74
2022/08/08 16:07:39;;;;;;;11.60;11.12;;;;;;;26.42;100.00;102476.16;2000460;71;31863;-76
2022/08/08 16:13:29;;;;;;;10.53;10.03;;;;;;;26.31;100.00;102472.11;2013695;71;31484;-74
2022/08/08 16:19:16;;;;;;;10.63;10.15;;;;;;;26.31;100.00;102478.65;2016932;71;30883;-75
2022/08/08 16:25:05;;;;;;;10.00;9.53;;;;;;;26.18;100.00;102478.34;2013057;71;31053;-76
2022/08/08 16:30:50;;;;;;;10.82;10.23;;;;;;;25.98;100.00;102470.08;1997282;71;30817;-75
2022/08/08 16:36:35;;;;;;;11.55;11.05;;;;;;;26.22;100.00;102460.23;1995079;71;31371;-75
2022/08/08 16:42:20;;;;;;;11.43;10.80;;;;;;;25.65;100.00;102462.12;1995489;71;30806;-76
2022/08/08 16:48:05;;;;;;;9.80;9.40;;;;;;;26.15;100.00;102459.09;2016674;71;31010;-74
2022/08/08 16:53:51;;;;;;;10.98;10.48;;;;;;;26.17;100.00;102464.69;1991875;71;31910;-75
2022/08/08 16:59:36;;;;;;;10.80;10.40;;;;;;;26.15;100.00;102469.05;2015259;71;30869;-76
2022/08/08 17:05:21;;;;;;;10.20;9.70;;;;;;;26.09;100.00;102475.59;2015327;71;32297;-76
2022/08/08 17:11:06;;;;;;;10.53;10.13;;;;;;;25.92;100.00;102478.63;2007756;71;30868;-75
2022/08/08 17:16:51;;;;;;;10.80;10.18;;;;;;;26.01;100.00;102472.84;2016776;71;31403;-75
2022/08/08 17:22:36;;;;;;;10.35;9.85;;;;;;;26.04;100.00;102469.28;2008127;71;30796;-74
2022/08/08 17:28:23;;;;;;;10.15;9.65;;;;;;;26.37;100.00;102465.81;2016933;71;32424;-75
2022/08/08 17:34:07;;;;;;;10.32;9.90;;;;;;;26.32;100.00;102473.75;2001059;71;31429;-75
2022/08/08 17:39:52;;;;;;;10.23;9.58;;;;;;;26.21;100.00;102471.97;2014925;71;30981;-75
2022/08/08 17:45:37;;;;;;;10.25;9.80;;;;;;;26.20;100.00;102475.99;2016878;71;30943;-73
2022/08/08 17:51:22;;;;;;;10.30;9.90;;;;;;;26.28;100.00;102472.20;2018773;71;30853;-77
2022/08/08 17:57:08;;;;;;;10.88;10.25;;;;;;;26.36;100.00;102476.97;2016990;71;31387;-74
2022/08/08 18:02:53;;;;;;;11.75;11.15;;;;;;;26.37;100.00;102481.48;2017004;71;30866;-75
2022/08/08 18:08:38;;;;;;;11.43;10.72;;;;;;;26.41;100.00;102483.03;1995395;71;30875;-77
2022/08/08 18:14:24;;;;;;;12.18;11.38;;;;;;;26.30;100.00;102489.80;2018562;71;30874;-77
2022/08/08 18:20:11;;;;;;;11.68;10.98;;;;;;;26.11;100.00;102490.89;2004469;71;30930;-75
2022/08/08 18:25:59;;;;;;;11.78;10.88;;;;;;;25.90;100.00;102510.88;2016735;71;31346;-76
2022/08/08 18:31:44;;;;;;;12.13;11.22;;;;;;;25.78;100.00;102524.47;2004761;71;31287;-75
2022/08/08 18:37:31;;;;;;;12.25;11.40;;;;;;;25.60;100.00;102529.22;2000828;71;30809;-75
2022/08/08 18:43:15;;;;;;;13.68;12.78;;;;;;;25.50;100.00;102544.66;2018767;71;31487;-73
2022/08/08 18:49:02;;;;;;;13.50;12.70;;;;;;;25.33;100.00;102556.16;1989325;71;31302;-75
2022/08/08 18:54:47;;;;;;;13.35;12.25;;;;;;;25.20;100.00;102566.61;2008167;70;30823;-75
2022/08/08 19:00:33;;;;;;;13.18;12.15;;;;;;;25.17;100.00;102580.69;2018546;71;30973;-77
2022/08/08 19:06:18;;;;;;;12.10;11.35;;;;;;;24.99;100.00;102591.93;2000289;71;31004;-76
2022/08/08 19:12:03;;;;;;;12.25;11.53;;;;;;;24.83;100.00;102591.61;2003811;71;30885;-76
2022/08/08 19:17:48;;;;;;;11.50;10.88;;;;;;;24.76;100.00;102606.94;2005887;71;31464;-75
2022/08/08 19:23:33;;;;;;;11.50;10.90;;;;;;;24.72;100.00;102613.06;2018521;71;30920;-76
2022/08/08 19:29:20;;;;;;;12.40;11.70;;;;;;;24.62;100.00;102618.52;2016713;71;30905;-77
2022/08/08 19:35:07;;;;;;;12.35;11.65;;;;;;;24.51;100.00;102630.58;1998891;71;31409;-77
2022/08/08 19:40:53;;;;;;;12.70;11.90;;;;;;;24.52;100.00;102641.59;2011957;71;31333;-74
2022/08/08 19:46:39;;;;;;;12.80;12.10;;;;;;;24.53;100.00;102650.37;2016812;71;30885;-76
2022/08/08 19:52:23;;;;;;;11.80;11.12;;;;;;;24.38;100.00;102656.01;1991785;71;30879;-74
2022/08/08 19:58:08;;;;;;;11.68;11.18;;;;;;;24.34;100.00;102668.38;2011960;71;30831;-75
2022/08/08 20:03:54;;;;;;;12.25;11.65;;;;;;;24.36;100.00;102681.64;2001031;71;30819;-76
2022/08/08 20:09:39;;;;;;;11.70;11.10;;;;;;;24.24;100.00;102692.26;2011961;71;30875;-77
2022/08/08 20:15:25;;;;;;;11.28;10.65;;;;;;;24.19;100.00;102691.00;2006421;71;31395;-75
2022/08/08 20:21:11;;;;;;;12.05;11.33;;;;;;;23.85;100.00;102687.50;2003911;71;31058;-74
2022/08/08 20:26:56;;;;;;;11.45;10.85;;;;;;;23.33;100.00;102702.08;2015118;71;30949;-75
2022/08/08 20:32:41;;;;;;;12.20;11.53;;;;;;;23.13;100.00;102707.75;1998579;71;30996;-76
2022/08/08 20:38:28;;;;;;;11.85;11.25;;;;;;;22.91;100.00;102716.86;2010086;71;30906;-75
2022/08/08 20:44:13;;;;;;;11.97;11.37;;;;;;;22.87;100.00;102728.02;2007315;71;31336;-74
2022/08/08 20:49:58;;;;;;;12.00;11.40;;;;;;;22.68;100.00;102732.99;1980217;72;31059;-78
2022/08/08 20:55:44;;;;;;;11.85;11.25;;;;;;;22.58;100.00;102727.03;2000881;71;30922;-77
2022/08/08 21:01:29;;;;;;;13.10;12.33;;;;;;;22.41;100.00;102730.30;1998665;71;30900;-75
2022/08/08 21:07:15;;;;;;;12.73;12.13;;;;;;;22.27;100.00;102739.40;1995079;71;30873;-76
2022/08/08 21:13:09;;;;;;;13.62;12.93;;;;;;;22.00;100.00;102754.44;2014826;71;30891;-76
2022/08/08 21:18:56;;;;;;;13.30;12.50;;;;;;;22.11;100.00;102749.67;1995503;71;31324;-76
2022/08/08 21:24:44;;;;;;;13.62;12.90;;;;;;;22.02;100.00;102750.73;2010021;71;30886;-76
2022/08/08 21:30:28;;;;;;;12.50;11.70;;;;;;;21.98;100.00;102748.27;2011908;70;31322;-75
2022/08/08 21:36:21;;;;;;;12.20;11.50;;;;;;;21.87;100.00;102753.27;1995607;71;33374;-76
2022/08/08 21:42:06;;;;;;;13.73;13.13;;;;;;;21.70;100.00;102755.33;2004517;71;30916;-74
2022/08/08 21:47:50;;;;;;;12.83;12.23;;;;;;;21.56;100.00;102751.68;2016775;71;30988;-74
2022/08/08 21:53:36;;;;;;;12.73;12.03;;;;;;;21.58;100.00;102759.83;1998825;71;31430;-75
2022/08/08 21:59:21;;;;;;;12.90;12.17;;;;;;;21.46;100.00;102753.86;2013227;71;30987;-75
2022/08/08 22:05:08;;;;;;;13.00;12.50;;;;;;;21.41;100.00;102753.38;2016802;71;30881;-74
2022/08/08 22:10:53;;;;;;;13.43;12.93;;;;;;;21.33;100.00;102769.66;2002725;71;30830;-74
2022/08/08 22:16:38;;;;;;;14.70;14.00;;;;;;;21.27;100.00;102777.38;2013533;71;30948;-74
2022/08/08 22:22:26;;;;;;;14.43;13.83;;;;;;;21.18;100.00;102775.61;2007919;71;30951;-73
2022/08/08 22:28:11;;;;;;;16.93;16.23;;;;;;;20.80;100.00;102785.53;2016905;71;31392;-74
2022/08/08 22:33:55;;;;;;;17.23;16.53;;;;;;;20.85;100.00;102783.19;2006165;71;31418;-74
2022/08/08 22:39:40;;;;;;;18.90;17.57;;;;;;;20.76;100.00;102792.94;2000805;71;30843;-73
2022/08/08 22:45:25;;;;;;;18.20;17.40;;;;;;;20.71;100.00;102786.55;2005821;71;31011;-74
2022/08/08 22:51:10;;;;;;;22.50;21.40;;;;;;;20.50;100.00;102783.75;2017002;71;31382;-74
2022/08/08 22:56:54;;;;;;;24.53;23.43;;;;;;;20.25;100.00;102789.17;2006305;71;31013;-73
2022/08/08 23:02:39;;;;;;;27.53;26.23;;;;;;;19.99;100.00;102801.37;2000927;71;30954;-76
2022/08/08 23:08:24;;;;;;;28.13;26.63;;;;;;;19.97;100.00;102803.09;1997413;71;31298;-74
2022/08/08 23:14:08;;;;;;;31.60;29.90;;;;;;;19.92;100.00;102801.75;2001218;71;30930;-74
2022/08/08 23:19:54;;;;;;;34.57;32.77;;;;;;;19.63;100.00;102812.81;1998635;71;31372;-75
2022/08/08 23:25:38;;;;;;;32.27;30.47;;;;;;;19.67;100.00;102810.52;1995450;71;30891;-75
2022/08/08 23:31:23;;;;;;;37.47;35.37;;;;;;;19.64;100.00;102807.45;2018850;71;30866;-74
2022/08/08 23:37:08;;;;;;;41.67;39.40;;;;;;;19.50;100.00;102810.98;2015160;71;33353;-76
2022/08/08 23:42:53;;;;;;;49.37;46.67;;;;;;;19.30;100.00;102815.92;1998822;71;31431;-74
2022/08/08 23:48:37;;;;;;;52.17;49.37;;;;;;;19.35;100.00;102815.31;1989534;71;31345;-74
2022/08/08 23:54:23;;;;;;;52.13;48.93;;;;;;;19.43;100.00;102817.52;2006356;71;30820;-74
